createdAt,value
2023-01-10T08:08:00.247Z,20.83
2023-01-10T08:10:27.691Z,21.77
2023-01-10T08:12:54.379Z,28.75
2023-01-10T08:15:21.302Z,27.00
2023-01-10T08:17:48.283Z,24.30
2023-01-10T08:20:15.286Z,14.35
2023-01-10T08:22:42.043Z,21.67
2023-01-10T08:25:09.666Z,25.70
2023-01-10T08:27:36.568Z,16.60
2023-01-10T08:30:04.907Z,20.85
2023-01-10T08:32:31.872Z,19.60
2023-01-10T08:34:58.515Z,16.98
2023-01-10T08:37:25.250Z,27.23
2023-01-10T08:39:51.949Z,21.02
2023-01-10T08:42:18.946Z,22.23
2023-01-10T08:44:45.672Z,14.30
2023-01-10T08:47:12.286Z,17.38
2023-01-10T08:49:38.888Z,25.23
2023-01-10T08:52:06.385Z,21.05
2023-01-10T08:54:33.309Z,21.35
2023-01-10T08:57:00.186Z,19.63
2023-01-10T08:59:26.866Z,14.93
2023-01-10T09:01:53.531Z,17.42
2023-01-10T09:04:20.891Z,16.98
2023-01-10T09:06:47.613Z,21.35
2023-01-10T09:09:14.271Z,10.50
2023-01-10T09:11:41.930Z,15.52
2023-01-10T09:14:08.705Z,24.42
2023-01-10T09:16:35.368Z,20.70
2023-01-10T09:19:01.965Z,27.20
2023-01-10T09:21:29.075Z,26.58
2023-01-10T09:23:55.777Z,20.15
2023-01-10T09:26:22.428Z,20.98
2023-01-10T09:28:49.264Z,14.20
2023-01-10T09:31:15.972Z,17.10
2023-01-10T09:33:47.149Z,18.60
2023-01-10T09:36:15.439Z,33.95
2023-01-10T09:38:42.378Z,17.10
2023-01-10T09:41:18.180Z,16.08
2023-01-10T09:44:17.592Z,19.63
2023-01-10T09:47:14.196Z,25.33
2023-01-10T09:50:15.421Z,17.80
2023-01-10T09:52:50.763Z,16.83
2023-01-10T09:55:32.368Z,17.95
2023-01-10T09:58:04.529Z,8.55
2023-01-10T10:01:03.574Z,17.75
2023-01-10T10:03:40.961Z,15.55
2023-01-10T10:06:12.708Z,19.55
2023-01-10T10:08:41.834Z,22.65
2023-01-10T10:11:25.232Z,12.10
2023-01-10T10:14:16.769Z,24.83
2023-01-10T10:17:21.447Z,21.13
2023-01-10T10:19:54.077Z,20.55
2023-01-10T10:22:41.730Z,20.50
2023-01-10T10:25:14.331Z,14.43
2023-01-10T10:28:22.000Z,22.27
2023-01-10T10:31:03.827Z,11.82
2023-01-10T10:34:15.097Z,22.38
2023-01-10T10:36:51.190Z,17.23
2023-01-10T10:39:22.427Z,18.90
2023-01-10T10:41:53.150Z,18.80
2023-01-10T10:44:25.397Z,20.83
2023-01-10T10:46:52.447Z,19.13
2023-01-10T10:49:38.439Z,24.48
2023-01-10T10:52:24.935Z,16.00
2023-01-10T10:54:53.039Z,9.55
2023-01-10T10:57:24.060Z,19.30
2023-01-10T10:59:51.264Z,18.80
2023-01-10T11:02:30.626Z,13.27
2023-01-10T11:05:06.607Z,15.90
2023-01-10T11:07:35.511Z,24.33
2023-01-10T11:10:08.584Z,19.98
2023-01-10T11:12:38.098Z,17.83
2023-01-10T11:15:05.229Z,17.55
2023-01-10T11:17:40.838Z,31.02
2023-01-10T11:20:15.664Z,16.75
2023-01-10T11:22:51.244Z,15.70
2023-01-10T11:25:20.977Z,25.17
2023-01-10T11:27:51.196Z,15.95
2023-01-10T11:30:22.696Z,17.75
2023-01-10T11:32:53.782Z,20.85
2023-01-10T11:35:37.998Z,16.67
2023-01-10T11:38:14.991Z,18.58
2023-01-10T11:40:54.877Z,18.30
2023-01-10T11:43:30.124Z,18.17
2023-01-10T11:46:02.573Z,17.48
2023-01-10T11:49:08.509Z,15.73
2023-01-10T11:51:44.750Z,20.52
2023-01-10T11:54:17.529Z,17.23
2023-01-10T11:57:08.627Z,14.93
2023-01-10T11:59:35.628Z,16.70
2023-01-10T12:02:23.611Z,20.00
2023-01-10T12:04:52.145Z,16.83
2023-01-10T12:07:22.440Z,15.50
2023-01-10T12:10:00.887Z,18.95
2023-01-10T12:12:35.738Z,15.48
2023-01-10T12:15:27.346Z,22.58
2023-01-10T12:17:57.154Z,17.55
2023-01-10T12:20:27.317Z,20.95
2023-01-10T12:23:00.390Z,16.20
2023-01-10T12:25:43.608Z,14.45
2023-01-10T12:28:30.804Z,15.10
2023-01-10T12:31:00.177Z,18.13
2023-01-10T12:33:32.778Z,16.05
2023-01-10T12:36:03.583Z,12.13
2023-01-10T12:38:57.846Z,11.93
2023-01-10T12:42:01.895Z,19.77
2023-01-10T12:44:39.981Z,19.30
2023-01-10T12:47:34.640Z,19.05
2023-01-10T12:50:13.444Z,16.45
2023-01-10T12:52:49.661Z,14.38
2023-01-10T12:55:18.515Z,19.35
2023-01-10T12:57:51.778Z,16.10
2023-01-10T13:00:26.220Z,14.40
2023-01-10T13:02:55.761Z,15.27
2023-01-10T13:05:25.598Z,17.73
2023-01-10T13:08:09.520Z,15.98
2023-01-10T13:10:41.472Z,11.27
2023-01-10T13:13:23.697Z,17.55
2023-01-10T13:16:22.518Z,19.30
2023-01-10T13:19:21.506Z,23.42
2023-01-10T13:21:48.281Z,20.70
2023-01-10T13:24:22.632Z,14.40
2023-01-10T13:26:56.746Z,17.58
2023-01-10T13:29:38.000Z,19.50
2023-01-10T13:32:22.414Z,18.63
2023-01-10T13:34:49.891Z,18.50
2023-01-10T13:37:31.612Z,12.05
2023-01-10T13:40:01.112Z,17.55
2023-01-10T13:42:52.141Z,18.65
2023-01-10T13:45:25.256Z,16.88
2023-01-10T13:47:54.422Z,17.75
2023-01-10T13:50:42.142Z,15.77
2023-01-10T13:53:13.018Z,24.30
2023-01-10T13:55:39.636Z,16.20
2023-01-10T13:58:15.534Z,20.48
2023-01-10T14:01:10.096Z,21.80
2023-01-10T14:03:45.567Z,14.88
2023-01-10T14:06:15.398Z,15.68
2023-01-10T14:08:56.880Z,22.98
2023-01-10T14:11:27.053Z,25.38
2023-01-10T14:14:00.036Z,15.95
2023-01-10T14:19:22.141Z,20.60
2023-01-10T14:21:52.835Z,16.40
2023-01-10T14:24:24.489Z,13.77
2023-01-10T14:26:55.911Z,13.82
2023-01-10T14:29:25.769Z,15.82
2023-01-10T14:31:53.393Z,14.48
2023-01-10T14:34:23.733Z,16.33
2023-01-10T14:37:04.206Z,15.25
2023-01-10T14:39:31.083Z,14.00
2023-01-10T14:42:08.574Z,13.85
2023-01-10T14:44:44.065Z,20.33
2023-01-10T14:47:31.095Z,26.95
2023-01-10T14:50:07.366Z,17.50
2023-01-10T14:52:34.507Z,33.20
2023-01-10T14:55:16.607Z,17.30
2023-01-10T14:58:00.451Z,17.08
2023-01-10T15:00:27.146Z,18.53
2023-01-10T15:02:53.851Z,16.20
2023-01-10T15:05:27.428Z,22.35
2023-01-10T15:07:55.355Z,14.90
2023-01-10T15:10:31.530Z,21.73
2023-01-10T15:13:02.246Z,18.63
2023-01-10T15:15:39.649Z,18.98
2023-01-10T15:18:36.244Z,13.70
2023-01-10T15:21:03.906Z,16.35
2023-01-10T15:23:38.918Z,11.48
2023-01-10T15:26:33.475Z,17.38
2023-01-10T15:29:22.335Z,14.98
2023-01-10T15:31:49.916Z,9.93
2023-01-10T15:34:21.245Z,9.10
2023-01-10T15:36:54.417Z,13.38
2023-01-10T15:39:23.983Z,16.60
2023-01-10T15:41:57.191Z,14.07
2023-01-10T15:44:32.685Z,10.52
2023-01-10T15:46:59.456Z,15.90
2023-01-10T15:49:26.674Z,11.77
2023-01-10T15:51:53.636Z,13.80
2023-01-10T15:54:20.332Z,9.73
2023-01-10T15:56:52.607Z,7.43
2023-01-10T15:59:37.190Z,8.30
2023-01-10T16:04:35.614Z,8.98
2023-01-10T16:07:29.733Z,10.90
2023-01-10T16:10:19.077Z,10.80
2023-01-10T16:13:04.669Z,7.93
2023-01-10T16:15:36.609Z,8.75
2023-01-10T16:18:03.353Z,7.18
2023-01-10T16:20:36.896Z,8.90
2023-01-10T16:23:08.524Z,4.80
2023-01-10T16:25:39.235Z,9.48
2023-01-10T16:28:06.352Z,5.53
2023-01-10T16:30:34.632Z,7.20
2023-01-10T16:33:10.954Z,7.13
2023-01-10T16:35:37.707Z,7.97
2023-01-10T16:38:04.443Z,6.07
2023-01-10T16:40:38.480Z,7.80
2023-01-10T16:43:23.322Z,4.00
2023-01-10T16:48:18.133Z,7.40
2023-01-10T16:50:45.772Z,5.95
2023-01-10T16:53:17.155Z,6.80
2023-01-10T16:55:49.732Z,6.10
2023-01-10T16:58:18.257Z,3.60
2023-01-10T17:00:47.527Z,3.08
2023-01-10T17:03:19.952Z,5.75
2023-01-10T17:05:47.123Z,12.32
2023-01-10T17:08:22.641Z,9.88
2023-01-10T17:10:53.835Z,4.68
2023-01-10T17:13:25.711Z,8.90
2023-01-10T17:15:52.287Z,11.60
2023-01-10T17:18:18.944Z,3.90
2023-01-10T17:20:45.649Z,4.47
2023-01-10T17:23:15.048Z,1.90
2023-01-10T17:25:42.290Z,4.88
2023-01-10T17:28:12.871Z,6.75
2023-01-10T17:30:40.358Z,3.08
2023-01-10T17:33:10.810Z,2.42
2023-01-10T17:35:41.995Z,3.45
2023-01-10T17:38:14.153Z,4.20
2023-01-10T17:40:45.951Z,2.17
2023-01-10T17:43:13.632Z,2.80
2023-01-10T17:45:41.320Z,2.10
2023-01-10T17:48:08.600Z,2.95
2023-01-10T17:50:36.410Z,2.67
2023-01-10T17:53:03.021Z,3.33
2023-01-10T17:55:29.641Z,1.48
2023-01-10T17:57:56.966Z,2.25
2023-01-10T18:00:23.910Z,2.03
2023-01-10T18:02:50.775Z,2.20
2023-01-10T18:05:17.577Z,2.45
2023-01-10T18:07:44.239Z,2.08
2023-01-10T18:10:11.151Z,4.03
2023-01-10T18:12:38.174Z,3.08
2023-01-10T18:15:05.891Z,2.83
2023-01-10T18:17:33.684Z,3.60
2023-01-10T18:20:00.399Z,4.07
2023-01-10T18:22:45.975Z,4.55
2023-01-10T18:25:12.942Z,2.58
2023-01-10T18:27:39.712Z,5.40
2023-01-10T18:30:06.871Z,2.53
2023-01-10T18:32:33.667Z,6.25
2023-01-10T18:35:00.314Z,5.68
2023-01-10T18:37:27.019Z,4.65
2023-01-10T18:39:53.661Z,4.07
2023-01-10T18:42:20.279Z,5.90
2023-01-10T18:44:47.265Z,5.32
2023-01-10T18:47:14.003Z,2.47
2023-01-10T18:49:41.202Z,3.25
2023-01-10T18:52:07.869Z,3.30
2023-01-10T18:54:34.695Z,2.83
2023-01-10T18:57:01.353Z,3.47
2023-01-10T18:59:28.088Z,4.75
2023-01-10T19:01:54.876Z,4.55
2023-01-10T19:04:21.581Z,2.35
2023-01-10T19:06:48.246Z,2.55
2023-01-10T19:09:15.038Z,3.03
2023-01-10T19:11:41.847Z,2.45
2023-01-10T19:14:08.566Z,4.07
2023-01-10T19:16:35.359Z,4.75
2023-01-10T19:19:05.589Z,7.35
2023-01-10T19:21:33.801Z,8.10
2023-01-10T19:24:06.729Z,6.20
2023-01-10T19:26:34.038Z,2.35
2023-01-10T19:29:03.592Z,3.50
2023-01-10T19:31:30.501Z,5.10
2023-01-10T19:34:00.943Z,2.90
2023-01-10T19:36:29.124Z,3.38
2023-01-10T19:38:58.905Z,3.83
2023-01-10T19:41:26.957Z,4.47
2023-01-10T19:44:02.886Z,2.92
2023-01-10T19:46:32.411Z,3.08
2023-01-10T19:49:02.010Z,3.03
2023-01-10T19:51:28.903Z,5.13
2023-01-10T19:53:55.651Z,3.83
2023-01-10T19:56:23.285Z,3.17
2023-01-10T19:58:51.304Z,2.05
2023-01-10T20:01:20.934Z,3.53
2023-01-10T20:03:47.824Z,3.15
2023-01-10T20:06:18.352Z,2.60
2023-01-10T20:08:46.366Z,4.25
2023-01-10T20:11:14.213Z,6.03
2023-01-10T20:13:45.504Z,2.90
2023-01-10T20:16:14.333Z,4.50
2023-01-10T20:18:41.837Z,5.53
2023-01-10T20:21:10.076Z,5.07
2023-01-10T20:23:38.280Z,4.18
2023-01-10T20:26:16.380Z,4.70
2023-01-10T20:28:44.228Z,3.83
2023-01-10T20:31:16.756Z,3.47
2023-01-10T20:33:43.632Z,3.88
2023-01-10T20:36:17.084Z,5.72
2023-01-10T20:38:43.705Z,4.70
2023-01-10T20:41:42.070Z,5.22
2023-01-10T20:44:08.796Z,3.22
2023-01-10T20:46:36.646Z,5.00
2023-01-10T20:49:03.475Z,5.47
2023-01-10T20:51:33.074Z,4.78
2023-01-10T20:53:59.984Z,3.33
2023-01-10T20:56:29.783Z,5.13
2023-01-10T20:58:56.693Z,3.83
2023-01-10T21:01:34.196Z,4.47
2023-01-10T21:04:02.750Z,6.35
2023-01-10T21:06:29.459Z,3.83
2023-01-10T21:08:56.343Z,3.85
2023-01-10T21:11:23.412Z,3.83
2023-01-10T21:13:50.114Z,2.92
2023-01-10T21:16:19.365Z,3.20
2023-01-10T21:18:46.775Z,5.90
2023-01-10T21:21:16.729Z,4.90
2023-01-10T21:23:43.561Z,4.05
2023-01-10T21:26:12.998Z,9.80
2023-01-10T21:28:48.125Z,3.38
2023-01-10T21:31:17.553Z,3.53
2023-01-10T21:33:44.536Z,5.32
2023-01-10T21:36:13.406Z,3.47
2023-01-10T21:38:40.886Z,3.58
2023-01-10T21:41:11.802Z,3.10
2023-01-10T21:43:38.732Z,2.70
2023-01-10T21:46:05.687Z,3.08
2023-01-10T21:48:32.525Z,2.83
2023-01-10T21:50:59.261Z,3.50
2023-01-10T21:53:26.216Z,2.50
2023-01-10T21:55:52.847Z,3.17
2023-01-10T21:58:19.636Z,3.00
2023-01-10T22:00:46.442Z,2.38
2023-01-10T22:03:13.066Z,4.00
2023-01-10T22:05:39.687Z,3.97
2023-01-10T22:08:06.438Z,2.88
2023-01-10T22:10:33.069Z,2.38
2023-01-10T22:12:59.681Z,3.88
2023-01-10T22:15:27.210Z,3.88
2023-01-10T22:17:53.998Z,2.50
2023-01-10T22:20:20.670Z,5.82
2023-01-10T22:22:47.326Z,3.72
2023-01-10T22:25:13.981Z,3.90
2023-01-10T22:27:41.225Z,3.45
2023-01-10T22:30:11.250Z,5.85
2023-01-10T22:32:37.823Z,4.00
2023-01-10T22:35:04.669Z,4.20
2023-01-10T22:37:31.461Z,3.92
2023-01-10T22:39:58.079Z,3.17
2023-01-10T22:42:24.724Z,4.43
2023-01-10T22:44:51.483Z,4.43
2023-01-10T22:47:18.134Z,3.63
2023-01-10T22:49:44.813Z,3.42
2023-01-10T22:52:11.437Z,6.60
2023-01-10T22:54:38.035Z,7.28
2023-01-10T22:57:04.643Z,5.55
2023-01-10T22:59:42.069Z,4.50
2023-01-10T23:02:08.685Z,5.72
2023-01-10T23:04:35.296Z,4.82
2023-01-10T23:07:01.931Z,4.70
2023-01-10T23:09:28.537Z,4.60
2023-01-10T23:11:55.129Z,4.75
